sensor_id;sensor_type;location;lat;lon;timestamp;pressure;altitude;pressure_sealevel;temperature;humidity
43553;BME280;29153;42.696;23.218;2022-09-30T11:18:14;94475.85;;;24.90;46.39
43553;BME280;29153;42.696;23.218;2022-09-30T11:20:47;94470.17;;;24.99;47.81
43553;BME280;29153;42.696;23.218;2022-09-30T11:45:02;94478.50;;;25.26;44.46
43553;BME280;29153;42.696;23.218;2022-09-30T11:55:42;94479.78;;;24.93;47.03
43553;BME280;29153;42.696;23.218;2022-09-30T11:58:15;94472.48;;;24.74;46.49
43553;BME280;29153;42.696;23.218;2022-09-30T12:00:45;94479.17;;;24.44;46.75
43553;BME280;29153;42.696;23.218;2022-09-30T12:03:19;94479.28;;;24.38;47.75
43553;BME280;29153;42.696;23.218;2022-09-30T12:05:57;94483.61;;;24.43;48.97
43553;BME280;29153;42.696;23.218;2022-09-30T12:08:31;94484.70;;;24.38;48.65
43553;BME280;29153;42.696;23.218;2022-09-30T12:11:07;94469.78;;;24.06;49.31
43553;BME280;29153;42.696;23.218;2022-09-30T12:13:42;94487.02;;;24.08;47.40
43553;BME280;29153;42.696;23.218;2022-09-30T12:16:18;94490.17;;;24.00;48.01
43553;BME280;29153;42.696;23.218;2022-09-30T12:18:52;94495.94;;;23.89;48.48
43553;BME280;29153;42.696;23.218;2022-09-30T12:21:31;94494.87;;;23.84;47.45
43553;BME280;29153;42.696;23.218;2022-09-30T12:26:38;94491.59;;;24.36;47.49
43553;BME280;29153;42.696;23.218;2022-09-30T12:29:13;94496.67;;;24.60;45.74
43553;BME280;29153;42.696;23.218;2022-09-30T12:40:16;94496.00;;;24.80;45.65
43553;BME280;29153;42.696;23.218;2022-09-30T12:48:10;94495.86;;;24.46;48.28
43553;BME280;29153;42.696;23.218;2022-09-30T12:50:55;94490.68;;;24.38;47.20
43553;BME280;29153;42.696;23.218;2022-09-30T12:53:21;94494.83;;;24.55;46.96
43553;BME280;29153;42.696;23.218;2022-09-30T12:55:49;94495.86;;;24.46;46.21
43553;BME280;29153;42.696;23.218;2022-09-30T12:58:26;94497.64;;;24.39;46.64
43553;BME280;29153;42.696;23.218;2022-09-30T13:01:06;94493.94;;;24.47;46.22
43553;BME280;29153;42.696;23.218;2022-09-30T13:04:09;94492.33;;;24.33;44.49
43553;BME280;29153;42.696;23.218;2022-09-30T13:06:18;94502.77;;;24.21;46.21
43553;BME280;29153;42.696;23.218;2022-09-30T13:09:06;94502.31;;;24.29;46.18
43553;BME280;29153;42.696;23.218;2022-09-30T13:11:45;94503.39;;;24.05;45.98
43553;BME280;29153;42.696;23.218;2022-09-30T13:14:35;94502.58;;;23.91;45.21
43553;BME280;29153;42.696;23.218;2022-09-30T13:19:40;94493.85;;;24.01;47.68
43553;BME280;29153;42.696;23.218;2022-09-30T13:32:46;94497.91;;;24.01;46.25
43553;BME280;29153;42.696;23.218;2022-09-30T13:38:19;94504.97;;;23.96;43.47
43553;BME280;29153;42.696;23.218;2022-09-30T13:40:50;94505.97;;;23.98;44.79
43553;BME280;29153;42.696;23.218;2022-09-30T13:43:24;94515.51;;;23.92;43.71
43553;BME280;29153;42.696;23.218;2022-09-30T13:45:54;94511.61;;;23.89;44.36
43553;BME280;29153;42.696;23.218;2022-09-30T13:48:27;94510.76;;;23.85;44.24
43553;BME280;29153;42.696;23.218;2022-09-30T13:50:58;94507.42;;;23.82;44.37
43553;BME280;29153;42.696;23.218;2022-09-30T13:53:38;94507.83;;;23.75;43.73
43553;BME280;29153;42.696;23.218;2022-09-30T13:56:10;94511.03;;;23.71;46.14
43553;BME280;29153;42.696;23.218;2022-09-30T14:13:12;94521.11;;;23.35;45.96
43553;BME280;29153;42.696;23.218;2022-09-30T14:18:49;94516.78;;;23.40;45.16
43553;BME280;29153;42.696;23.218;2022-09-30T14:23:58;94525.80;;;23.38;45.78
43553;BME280;29153;42.696;23.218;2022-09-30T14:32:20;94536.56;;;23.19;45.44
43553;BME280;29153;42.696;23.218;2022-09-30T14:34:49;94541.70;;;23.24;46.25
43553;BME280;29153;42.696;23.218;2022-09-30T14:37:36;94542.78;;;23.29;45.93
43553;BME280;29153;42.696;23.218;2022-09-30T14:40:00;94544.36;;;23.30;48.22
43553;BME280;29153;42.696;23.218;2022-09-30T14:42:34;94541.36;;;23.26;48.95
43553;BME280;29153;42.696;23.218;2022-09-30T14:45:04;94538.66;;;23.26;48.07
43553;BME280;29153;42.696;23.218;2022-09-30T14:47:43;94545.39;;;23.16;48.28
43553;BME280;29153;42.696;23.218;2022-09-30T14:50:28;94541.97;;;23.09;47.16
43553;BME280;29153;42.696;23.218;2022-09-30T14:52:52;94545.35;;;23.06;48.54
43553;BME280;29153;42.696;23.218;2022-09-30T14:55:27;94554.58;;;22.96;50.93
43553;BME280;29153;42.696;23.218;2022-09-30T15:00:54;94552.16;;;22.75;51.69
43553;BME280;29153;42.696;23.218;2022-09-30T15:03:17;94552.30;;;22.66;55.00
43553;BME280;29153;42.696;23.218;2022-09-30T15:05:45;94557.73;;;22.45;55.21
43553;BME280;29153;42.696;23.218;2022-09-30T15:08:20;94546.65;;;22.34;55.60
43553;BME280;29153;42.696;23.218;2022-09-30T15:10:50;94546.72;;;22.22;57.94
43553;BME280;29153;42.696;23.218;2022-09-30T15:13:21;94551.73;;;22.08;56.78
43553;BME280;29153;42.696;23.218;2022-09-30T15:15:49;94548.91;;;21.95;60.45
43553;BME280;29153;42.696;23.218;2022-09-30T15:20:56;94554.84;;;21.60;63.47
43553;BME280;29153;42.696;23.218;2022-09-30T15:23:30;94552.61;;;21.44;64.99
43553;BME280;29153;42.696;23.218;2022-09-30T15:25:58;94558.27;;;21.27;66.06
43553;BME280;29153;42.696;23.218;2022-09-30T15:28:27;94566.56;;;21.10;68.18
43553;BME280;29153;42.696;23.218;2022-09-30T15:30:56;94567.15;;;20.91;69.01
43553;BME280;29153;42.696;23.218;2022-09-30T15:33:26;94578.91;;;20.68;69.77
43553;BME280;29153;42.696;23.218;2022-09-30T15:36:06;94583.56;;;20.41;70.80
43553;BME280;29153;42.696;23.218;2022-09-30T15:38:36;94590.56;;;20.21;72.23
43553;BME280;29153;42.696;23.218;2022-09-30T15:41:09;94593.27;;;19.94;73.45
43553;BME280;29153;42.696;23.218;2022-09-30T15:43:51;94590.16;;;19.78;73.89
43553;BME280;29153;42.696;23.218;2022-09-30T15:49:01;94600.05;;;19.30;75.85
43553;BME280;29153;42.696;23.218;2022-09-30T15:51:40;94603.31;;;19.15;76.26
43553;BME280;29153;42.696;23.218;2022-09-30T15:54:27;94598.55;;;19.05;76.32
43553;BME280;29153;42.696;23.218;2022-09-30T15:57:00;94606.23;;;18.86;77.78
43553;BME280;29153;42.696;23.218;2022-09-30T15:59:56;94601.91;;;18.64;79.00
43553;BME280;29153;42.696;23.218;2022-09-30T16:02:26;94608.95;;;18.46;78.28
43553;BME280;29153;42.696;23.218;2022-09-30T16:04:55;94616.63;;;18.33;79.21
43553;BME280;29153;42.696;23.218;2022-09-30T16:07:25;94618.25;;;18.16;79.88
43553;BME280;29153;42.696;23.218;2022-09-30T16:09:54;94545.63;;;17.49;80.77
43553;BME280;29153;42.696;23.218;2022-09-30T16:12:28;94627.97;;;17.89;80.78
43553;BME280;29153;42.696;23.218;2022-09-30T16:15:02;94632.72;;;17.66;81.75
43553;BME280;29153;42.696;23.218;2022-09-30T16:17:36;94640.86;;;17.44;82.96
43553;BME280;29153;42.696;23.218;2022-09-30T16:28:00;94641.78;;;16.83;86.01
43553;BME280;29153;42.696;23.218;2022-09-30T16:30:28;94638.91;;;16.71;86.34
43553;BME280;29153;42.696;23.218;2022-09-30T16:33:01;94638.70;;;16.59;87.08
43553;BME280;29153;42.696;23.218;2022-09-30T16:35:28;94642.15;;;16.48;86.96
43553;BME280;29153;42.696;23.218;2022-09-30T16:38:04;94644.14;;;16.34;87.06
43553;BME280;29153;42.696;23.218;2022-09-30T16:40:33;94647.48;;;16.28;87.00
43553;BME280;29153;42.696;23.218;2022-09-30T16:43:05;94652.94;;;16.23;87.99
43553;BME280;29153;42.696;23.218;2022-09-30T16:45:36;94650.22;;;16.15;87.92
43553;BME280;29153;42.696;23.218;2022-09-30T16:48:15;94657.81;;;16.10;87.49
43553;BME280;29153;42.696;23.218;2022-09-30T16:51:04;94661.39;;;16.06;88.28
43553;BME280;29153;42.696;23.218;2022-09-30T16:53:33;94662.19;;;15.95;88.01
43553;BME280;29153;42.696;23.218;2022-09-30T16:56:01;94664.55;;;15.85;87.99
43553;BME280;29153;42.696;23.218;2022-09-30T16:58:28;94668.73;;;15.78;88.32
43553;BME280;29153;42.696;23.218;2022-09-30T17:00:56;94671.27;;;15.72;88.14
43553;BME280;29153;42.696;23.218;2022-09-30T17:03:26;94667.98;;;15.64;88.93
43553;BME280;29153;42.696;23.218;2022-09-30T17:05:53;94673.39;;;15.61;89.26
43553;BME280;29153;42.696;23.218;2022-09-30T17:08:22;94673.74;;;15.57;89.54
43553;BME280;29153;42.696;23.218;2022-09-30T17:10:49;94677.92;;;15.47;89.48
43553;BME280;29153;42.696;23.218;2022-09-30T17:13:17;94675.44;;;15.53;88.89
43553;BME280;29153;42.696;23.218;2022-09-30T17:15:49;94667.64;;;15.40;90.02
43553;BME280;29153;42.696;23.218;2022-09-30T17:18:17;94667.18;;;15.25;90.55
43553;BME280;29153;42.696;23.218;2022-09-30T17:20:47;94667.18;;;15.25;90.55
43553;BME280;29153;42.696;23.218;2022-09-30T17:23:16;94671.83;;;15.19;90.91
43553;BME280;29153;42.696;23.218;2022-09-30T17:25:43;94668.61;;;15.20;90.99
43553;BME280;29153;42.696;23.218;2022-09-30T17:28:12;94664.39;;;15.05;91.72
43553;BME280;29153;42.696;23.218;2022-09-30T17:30:40;94662.61;;;15.00;91.31
43553;BME280;29153;42.696;23.218;2022-09-30T17:33:10;94670.61;;;15.14;90.14
43553;BME280;29153;42.696;23.218;2022-09-30T17:35:38;94669.86;;;15.11;89.18
43553;BME280;29153;42.696;23.218;2022-09-30T17:38:10;94673.73;;;15.19;89.17
43553;BME280;29153;42.696;23.218;2022-09-30T17:40:39;94680.17;;;15.29;87.15
43553;BME280;29153;42.696;23.218;2022-09-30T17:43:24;94690.33;;;15.40;87.08
43553;BME280;29153;42.696;23.218;2022-09-30T17:45:52;94695.90;;;15.30;87.52
43553;BME280;29153;42.696;23.218;2022-09-30T17:48:20;94697.27;;;15.28;87.27
43553;BME280;29153;42.696;23.218;2022-09-30T17:50:48;94702.06;;;15.28;86.37
43553;BME280;29153;42.696;23.218;2022-09-30T17:53:18;94704.34;;;15.35;85.43
43553;BME280;29153;42.696;23.218;2022-09-30T17:55:46;94705.94;;;15.36;86.01
43553;BME280;29153;42.696;23.218;2022-09-30T17:58:16;94703.30;;;15.33;86.33
43553;BME280;29153;42.696;23.218;2022-09-30T18:00:44;94710.23;;;15.34;86.49
43553;BME280;29153;42.696;23.218;2022-09-30T18:03:12;94710.04;;;15.31;87.14
43553;BME280;29153;42.696;23.218;2022-09-30T18:05:40;94716.36;;;15.35;87.45
43553;BME280;29153;42.696;23.218;2022-09-30T18:08:11;94716.64;;;15.33;87.20
43553;BME280;29153;42.696;23.218;2022-09-30T18:10:38;94719.22;;;15.38;86.31
43553;BME280;29153;42.696;23.218;2022-09-30T18:13:06;94715.47;;;15.26;87.06
43553;BME280;29153;42.696;23.218;2022-09-30T18:15:34;94724.37;;;15.21;87.85
43553;BME280;29153;42.696;23.218;2022-09-30T18:18:03;94734.53;;;15.19;89.58
43553;BME280;29153;42.696;23.218;2022-09-30T18:20:31;94739.83;;;15.08;90.74
43553;BME280;29153;42.696;23.218;2022-09-30T18:22:58;94733.79;;;15.02;91.73
43553;BME280;29153;42.696;23.218;2022-09-30T18:25:25;94734.28;;;14.91;92.80
43553;BME280;29153;42.696;23.218;2022-09-30T18:27:58;94739.36;;;14.90;93.28
43553;BME280;29153;42.696;23.218;2022-09-30T18:30:26;94738.23;;;14.80;93.84
43553;BME280;29153;42.696;23.218;2022-09-30T18:32:55;94738.23;;;14.80;93.84
43553;BME280;29153;42.696;23.218;2022-09-30T18:35:24;94742.45;;;14.67;94.50
43553;BME280;29153;42.696;23.218;2022-09-30T18:37:52;94742.21;;;14.50;95.51
43553;BME280;29153;42.696;23.218;2022-09-30T18:40:20;94742.21;;;14.50;95.51
43553;BME280;29153;42.696;23.218;2022-09-30T18:42:51;94736.59;;;14.33;96.01
43553;BME280;29153;42.696;23.218;2022-09-30T18:45:17;94736.59;;;14.33;96.01
43553;BME280;29153;42.696;23.218;2022-09-30T18:47:45;94737.47;;;14.28;96.63
43553;BME280;29153;42.696;23.218;2022-09-30T18:50:13;94742.69;;;14.17;97.42
43553;BME280;29153;42.696;23.218;2022-09-30T18:52:42;94742.69;;;14.17;97.42
43553;BME280;29153;42.696;23.218;2022-09-30T18:55:10;94747.88;;;14.08;97.92
43553;BME280;29153;42.696;23.218;2022-09-30T18:57:37;94747.81;;;13.95;98.83
43553;BME280;29153;42.696;23.218;2022-09-30T19:00:07;94756.70;;;13.88;98.86
43553;BME280;29153;42.696;23.218;2022-09-30T19:02:38;94756.70;;;13.88;98.86
43553;BME280;29153;42.696;23.218;2022-09-30T19:05:07;94750.70;;;13.80;99.32
43553;BME280;29153;42.696;23.218;2022-09-30T19:07:34;94752.41;;;13.73;99.72
43553;BME280;29153;42.696;23.218;2022-09-30T19:10:04;94750.08;;;13.66;100.00
43553;BME280;29153;42.696;23.218;2022-09-30T19:12:33;94746.77;;;13.56;100.00
43553;BME280;29153;42.696;23.218;2022-09-30T19:15:06;94747.64;;;13.49;100.00
43553;BME280;29153;42.696;23.218;2022-09-30T19:17:34;94747.11;;;13.49;100.00
43553;BME280;29153;42.696;23.218;2022-09-30T19:20:04;94747.95;;;13.47;100.00
43553;BME280;29153;42.696;23.218;2022-09-30T19:22:32;94752.59;;;13.37;100.00
43553;BME280;29153;42.696;23.218;2022-09-30T19:25:08;94750.72;;;13.37;99.78
43553;BME280;29153;42.696;23.218;2022-09-30T19:27:40;94763.34;;;13.27;99.89
43553;BME280;29153;42.696;23.218;2022-09-30T19:30:09;94782.31;;;13.20;100.00
43553;BME280;29153;42.696;23.218;2022-09-30T19:32:38;94763.84;;;13.05;100.00
43553;BME280;29153;42.696;23.218;2022-09-30T19:35:07;94763.84;;;13.05;100.00
43553;BME280;29153;42.696;23.218;2022-09-30T19:37:39;94775.50;;;13.09;100.00
43553;BME280;29153;42.696;23.218;2022-09-30T19:40:09;94775.38;;;12.95;100.00
43553;BME280;29153;42.696;23.218;2022-09-30T19:42:36;94775.38;;;12.95;100.00
43553;BME280;29153;42.696;23.218;2022-09-30T19:45:07;94775.20;;;12.87;100.00
43553;BME280;29153;42.696;23.218;2022-09-30T19:47:34;94765.14;;;12.81;100.00
43553;BME280;29153;42.696;23.218;2022-09-30T19:50:02;94769.73;;;12.73;100.00
43553;BME280;29153;42.696;23.218;2022-09-30T19:52:31;94768.22;;;12.64;100.00
43553;BME280;29153;42.696;23.218;2022-09-30T19:54:59;94768.22;;;12.64;100.00
43553;BME280;29153;42.696;23.218;2022-09-30T19:57:27;94774.34;;;12.62;100.00
43553;BME280;29153;42.696;23.218;2022-09-30T19:59:54;94779.16;;;12.60;100.00
43553;BME280;29153;42.696;23.218;2022-09-30T20:02:22;94779.16;;;12.60;100.00
43553;BME280;29153;42.696;23.218;2022-09-30T20:04:49;94785.83;;;12.58;100.00
43553;BME280;29153;42.696;23.218;2022-09-30T20:07:18;94785.83;;;12.58;100.00
43553;BME280;29153;42.696;23.218;2022-09-30T20:09:46;94785.38;;;12.48;100.00
43553;BME280;29153;42.696;23.218;2022-09-30T20:12:13;94782.78;;;12.41;100.00
43553;BME280;29153;42.696;23.218;2022-09-30T20:14:41;94782.78;;;12.41;100.00
43553;BME280;29153;42.696;23.218;2022-09-30T20:17:27;94776.45;;;12.34;100.00
43553;BME280;29153;42.696;23.218;2022-09-30T20:19:55;94776.45;;;12.34;100.00
43553;BME280;29153;42.696;23.218;2022-09-30T20:22:40;94804.34;;;12.34;100.00
43553;BME280;29153;42.696;23.218;2022-09-30T20:25:08;94804.34;;;12.34;100.00
43553;BME280;29153;42.696;23.218;2022-09-30T20:27:36;94802.75;;;12.36;100.00
43553;BME280;29153;42.696;23.218;2022-09-30T20:30:05;94792.62;;;12.38;100.00
43553;BME280;29153;42.696;23.218;2022-09-30T20:32:33;94793.95;;;12.40;100.00
43553;BME280;29153;42.696;23.218;2022-09-30T20:35:01;94794.18;;;12.41;100.00
43553;BME280;29153;42.696;23.218;2022-09-30T20:37:28;94797.44;;;12.33;100.00
43553;BME280;29153;42.696;23.218;2022-09-30T20:39:56;94790.86;;;12.25;100.00
43553;BME280;29153;42.696;23.218;2022-09-30T20:42:23;94786.84;;;12.28;100.00
43553;BME280;29153;42.696;23.218;2022-09-30T20:44:53;94787.64;;;12.31;100.00
43553;BME280;29153;42.696;23.218;2022-09-30T20:47:22;94786.64;;;12.22;100.00
43553;BME280;29153;42.696;23.218;2022-09-30T20:49:50;94795.67;;;12.21;100.00
43553;BME280;29153;42.696;23.218;2022-09-30T20:52:17;94804.97;;;12.21;100.00
43553;BME280;29153;42.696;23.218;2022-09-30T20:54:47;94801.75;;;12.24;100.00
43553;BME280;29153;42.696;23.218;2022-09-30T20:57:14;94805.23;;;12.22;100.00
43553;BME280;29153;42.696;23.218;2022-09-30T20:59:42;94805.79;;;12.19;100.00
43553;BME280;29153;42.696;23.218;2022-09-30T21:02:11;94798.30;;;12.26;100.00
43553;BME280;29153;42.696;23.218;2022-09-30T21:04:39;94798.30;;;12.26;100.00
43553;BME280;29153;42.696;23.218;2022-09-30T21:07:06;94800.15;;;12.25;100.00
43553;BME280;29153;42.696;23.218;2022-09-30T21:09:34;94812.64;;;12.25;100.00
43553;BME280;29153;42.696;23.218;2022-09-30T21:12:02;94810.86;;;12.13;100.00
43553;BME280;29153;42.696;23.218;2022-09-30T21:14:29;94814.29;;;12.18;100.00
43553;BME280;29153;42.696;23.218;2022-09-30T21:16:57;94806.82;;;12.20;100.00
43553;BME280;29153;42.696;23.218;2022-09-30T21:19:24;94818.50;;;12.19;100.00
43553;BME280;29153;42.696;23.218;2022-09-30T21:21:52;94815.61;;;12.18;100.00
43553;BME280;29153;42.696;23.218;2022-09-30T21:24:21;94812.93;;;12.21;100.00
43553;BME280;29153;42.696;23.218;2022-09-30T21:26:50;94822.70;;;12.28;100.00
43553;BME280;29153;42.696;23.218;2022-09-30T21:29:18;94825.41;;;12.20;100.00
43553;BME280;29153;42.696;23.218;2022-09-30T21:31:47;94830.73;;;12.23;100.00
43553;BME280;29153;42.696;23.218;2022-09-30T21:34:15;94820.66;;;12.17;100.00
43553;BME280;29153;42.696;23.218;2022-09-30T21:36:42;94820.66;;;12.17;100.00
43553;BME280;29153;42.696;23.218;2022-09-30T21:39:11;94819.97;;;12.02;100.00
43553;BME280;29153;42.696;23.218;2022-09-30T21:41:39;94819.97;;;12.02;100.00
43553;BME280;29153;42.696;23.218;2022-09-30T21:44:06;94826.34;;;12.01;100.00
43553;BME280;29153;42.696;23.218;2022-09-30T21:46:34;94839.11;;;11.96;100.00
43553;BME280;29153;42.696;23.218;2022-09-30T21:49:12;94836.73;;;11.90;100.00
43553;BME280;29153;42.696;23.218;2022-09-30T21:51:35;94837.52;;;11.98;100.00
43553;BME280;29153;42.696;23.218;2022-09-30T21:54:02;94837.25;;;11.97;100.00
43553;BME280;29153;42.696;23.218;2022-09-30T21:56:30;94837.25;;;11.97;100.00
43553;BME280;29153;42.696;23.218;2022-09-30T21:58:57;94834.33;;;11.96;100.00
43553;BME280;29153;42.696;23.218;2022-09-30T22:01:25;94832.72;;;12.00;100.00
43553;BME280;29153;42.696;23.218;2022-09-30T22:03:52;94839.08;;;11.99;100.00
43553;BME280;29153;42.696;23.218;2022-09-30T22:06:20;94836.70;;;12.02;100.00
43553;BME280;29153;42.696;23.218;2022-09-30T22:08:47;94837.23;;;11.99;100.00
43553;BME280;29153;42.696;23.218;2022-09-30T22:11:17;94851.08;;;11.94;100.00
43553;BME280;29153;42.696;23.218;2022-09-30T22:13:47;94856.92;;;11.93;100.00
43553;BME280;29153;42.696;23.218;2022-09-30T22:16:15;94867.23;;;12.00;100.00
43553;BME280;29153;42.696;23.218;2022-09-30T22:18:45;94865.63;;;11.99;100.00
43553;BME280;29153;42.696;23.218;2022-09-30T22:21:13;94875.74;;;11.94;100.00
43553;BME280;29153;42.696;23.218;2022-09-30T22:23:41;94871.23;;;11.95;100.00
43553;BME280;29153;42.696;23.218;2022-09-30T22:26:11;94884.52;;;11.90;100.00
43553;BME280;29153;42.696;23.218;2022-09-30T22:28:40;94886.93;;;11.86;100.00
43553;BME280;29153;42.696;23.218;2022-09-30T22:31:19;94880.60;;;11.79;100.00
43553;BME280;29153;42.696;23.218;2022-09-30T22:33:49;94878.50;;;11.76;100.00
43553;BME280;29153;42.696;23.218;2022-09-30T22:36:35;94888.83;;;11.78;100.00
43553;BME280;29153;42.696;23.218;2022-09-30T22:39:21;94888.83;;;11.78;100.00
43553;BME280;29153;42.696;23.218;2022-09-30T22:41:50;94885.91;;;11.79;100.00
43553;BME280;29153;42.696;23.218;2022-09-30T22:44:24;94890.95;;;11.68;100.00
43553;BME280;29153;42.696;23.218;2022-09-30T22:46:52;94878.53;;;11.59;100.00
43553;BME280;29153;42.696;23.218;2022-09-30T22:49:21;94878.26;;;11.58;100.00
43553;BME280;29153;42.696;23.218;2022-09-30T22:51:51;94870.83;;;11.57;100.00
43553;BME280;29153;42.696;23.218;2022-09-30T22:54:19;94864.75;;;11.54;100.00
43553;BME280;29153;42.696;23.218;2022-09-30T22:56:47;94871.94;;;11.46;100.00
43553;BME280;29153;42.696;23.218;2022-09-30T22:59:18;94873.00;;;11.40;100.00
43553;BME280;29153;42.696;23.218;2022-09-30T23:01:46;94880.96;;;11.40;100.00
43553;BME280;29153;42.696;23.218;2022-09-30T23:04:14;94880.96;;;11.40;100.00
43553;BME280;29153;42.696;23.218;2022-09-30T23:06:49;94883.09;;;11.40;100.00
43553;BME280;29153;42.696;23.218;2022-09-30T23:09:18;94881.22;;;11.46;100.00
43553;BME280;29153;42.696;23.218;2022-09-30T23:11:47;94888.38;;;11.43;100.00
43553;BME280;29153;42.696;23.218;2022-09-30T23:14:17;94892.90;;;11.40;100.00
43553;BME280;29153;42.696;23.218;2022-09-30T23:16:45;94891.34;;;11.29;100.00
43553;BME280;29153;42.696;23.218;2022-09-30T23:19:12;94901.13;;;11.41;100.00
43553;BME280;29153;42.696;23.218;2022-09-30T23:21:39;94902.20;;;11.37;100.00
43553;BME280;29153;42.696;23.218;2022-09-30T23:24:07;94894.25;;;11.32;100.00
43553;BME280;29153;42.696;23.218;2022-09-30T23:26:35;94900.58;;;11.39;100.00
43553;BME280;29153;42.696;23.218;2022-09-30T23:29:04;94906.45;;;11.28;100.00
43553;BME280;29153;42.696;23.218;2022-09-30T23:31:33;94912.02;;;11.27;100.00
43553;BME280;29153;42.696;23.218;2022-09-30T23:34:01;94912.02;;;11.27;100.00
43553;BME280;29153;42.696;23.218;2022-09-30T23:36:31;94907.77;;;11.26;100.00
43553;BME280;29153;42.696;23.218;2022-09-30T23:39:10;94910.17;;;11.25;100.00
43553;BME280;29153;42.696;23.218;2022-09-30T23:41:33;94910.17;;;11.25;100.00
43553;BME280;29153;42.696;23.218;2022-09-30T23:44:01;94905.39;;;11.17;100.00
43553;BME280;29153;42.696;23.218;2022-09-30T23:46:29;94899.58;;;11.20;100.00
43553;BME280;29153;42.696;23.218;2022-09-30T23:48:57;94900.38;;;11.20;100.00
43553;BME280;29153;42.696;23.218;2022-09-30T23:51:25;94896.91;;;11.17;100.00
43553;BME280;29153;42.696;23.218;2022-09-30T23:53:52;94897.20;;;11.11;100.00
43553;BME280;29153;42.696;23.218;2022-09-30T23:56:21;94892.69;;;11.01;100.00
43553;BME280;29153;42.696;23.218;2022-09-30T23:58:49;94894.80;;;11.04;100.00
